sensor_id;sensor_type;location;lat;lon;timestamp;temperature;humidity
29237;DHT22;16266;50.866;4.398;2023-08-31T00:01:31;12.30;99.90
29237;DHT22;16266;50.866;4.398;2023-08-31T00:03:59;12.30;99.90
29237;DHT22;16266;50.866;4.398;2023-08-31T00:06:25;12.30;99.90
29237;DHT22;16266;50.866;4.398;2023-08-31T00:08:51;12.50;99.90
29237;DHT22;16266;50.866;4.398;2023-08-31T00:11:16;12.50;99.90
29237;DHT22;16266;50.866;4.398;2023-08-31T00:13:43;12.40;99.90
29237;DHT22;16266;50.866;4.398;2023-08-31T00:16:09;12.40;99.90
29237;DHT22;16266;50.866;4.398;2023-08-31T00:18:36;12.40;99.90
29237;DHT22;16266;50.866;4.398;2023-08-31T00:21:02;12.40;99.90
29237;DHT22;16266;50.866;4.398;2023-08-31T00:23:29;12.40;99.90
29237;DHT22;16266;50.866;4.398;2023-08-31T00:25:57;12.40;99.90
29237;DHT22;16266;50.866;4.398;2023-08-31T00:28:23;12.40;99.90
29237;DHT22;16266;50.866;4.398;2023-08-31T00:30:51;12.40;99.90
29237;DHT22;16266;50.866;4.398;2023-08-31T00:33:17;12.40;99.90
29237;DHT22;16266;50.866;4.398;2023-08-31T00:35:43;12.50;99.90
29237;DHT22;16266;50.866;4.398;2023-08-31T00:38:12;12.50;99.90
29237;DHT22;16266;50.866;4.398;2023-08-31T00:40:39;12.50;99.90
29237;DHT22;16266;50.866;4.398;2023-08-31T00:43:08;12.60;99.90
29237;DHT22;16266;50.866;4.398;2023-08-31T00:45:34;12.50;99.90
29237;DHT22;16266;50.866;4.398;2023-08-31T00:48:00;12.60;99.90
29237;DHT22;16266;50.866;4.398;2023-08-31T00:50:26;12.60;99.90
29237;DHT22;16266;50.866;4.398;2023-08-31T00:52:52;12.60;99.90
29237;DHT22;16266;50.866;4.398;2023-08-31T00:55:17;12.60;99.90
29237;DHT22;16266;50.866;4.398;2023-08-31T00:57:44;12.60;99.90
29237;DHT22;16266;50.866;4.398;2023-08-31T01:00:10;12.60;99.90
29237;DHT22;16266;50.866;4.398;2023-08-31T01:05:46;12.60;99.90
29237;DHT22;16266;50.866;4.398;2023-08-31T01:11:07;12.50;99.90
29237;DHT22;16266;50.866;4.398;2023-08-31T01:13:34;12.50;99.90
29237;DHT22;16266;50.866;4.398;2023-08-31T01:16:05;12.50;99.90
29237;DHT22;16266;50.866;4.398;2023-08-31T01:18:32;12.40;99.90
29237;DHT22;16266;50.866;4.398;2023-08-31T01:21:12;12.30;99.90
29237;DHT22;16266;50.866;4.398;2023-08-31T01:24:11;12.30;99.90
29237;DHT22;16266;50.866;4.398;2023-08-31T01:26:37;12.30;99.90
29237;DHT22;16266;50.866;4.398;2023-08-31T01:29:05;12.30;99.90
29237;DHT22;16266;50.866;4.398;2023-08-31T01:31:31;12.20;99.90
29237;DHT22;16266;50.866;4.398;2023-08-31T01:33:56;12.20;99.90
29237;DHT22;16266;50.866;4.398;2023-08-31T01:36:30;12.30;99.90
29237;DHT22;16266;50.866;4.398;2023-08-31T01:39:07;12.30;99.90
29237;DHT22;16266;50.866;4.398;2023-08-31T01:41:37;12.30;99.90
29237;DHT22;16266;50.866;4.398;2023-08-31T01:44:06;12.30;99.90
29237;DHT22;16266;50.866;4.398;2023-08-31T01:46:34;12.30;99.90
29237;DHT22;16266;50.866;4.398;2023-08-31T01:49:00;12.30;99.90
29237;DHT22;16266;50.866;4.398;2023-08-31T01:51:26;12.30;99.90
29237;DHT22;16266;50.866;4.398;2023-08-31T01:53:52;12.20;99.90
29237;DHT22;16266;50.866;4.398;2023-08-31T01:56:17;12.30;99.90
29237;DHT22;16266;50.866;4.398;2023-08-31T01:58:43;12.30;99.90
29237;DHT22;16266;50.866;4.398;2023-08-31T02:01:09;12.20;99.90
29237;DHT22;16266;50.866;4.398;2023-08-31T02:03:35;12.20;99.90
29237;DHT22;16266;50.866;4.398;2023-08-31T02:06:00;12.20;99.90
29237;DHT22;16266;50.866;4.398;2023-08-31T02:08:26;12.20;99.90
29237;DHT22;16266;50.866;4.398;2023-08-31T02:10:52;12.30;99.90
29237;DHT22;16266;50.866;4.398;2023-08-31T02:13:19;12.30;99.90
29237;DHT22;16266;50.866;4.398;2023-08-31T02:15:45;12.30;99.90
29237;DHT22;16266;50.866;4.398;2023-08-31T02:18:11;12.10;99.90
29237;DHT22;16266;50.866;4.398;2023-08-31T02:20:36;12.10;99.90
29237;DHT22;16266;50.866;4.398;2023-08-31T02:23:02;12.10;99.90
29237;DHT22;16266;50.866;4.398;2023-08-31T02:25:28;12.10;99.90
29237;DHT22;16266;50.866;4.398;2023-08-31T02:27:54;12.20;99.90
29237;DHT22;16266;50.866;4.398;2023-08-31T02:30:20;12.20;99.90
29237;DHT22;16266;50.866;4.398;2023-08-31T02:32:46;12.20;99.90
29237;DHT22;16266;50.866;4.398;2023-08-31T02:35:12;12.20;99.90
29237;DHT22;16266;50.866;4.398;2023-08-31T02:37:38;12.20;99.90
29237;DHT22;16266;50.866;4.398;2023-08-31T02:40:04;12.20;99.90
29237;DHT22;16266;50.866;4.398;2023-08-31T02:42:31;12.20;99.90
29237;DHT22;16266;50.866;4.398;2023-08-31T02:44:57;12.30;99.90
29237;DHT22;16266;50.866;4.398;2023-08-31T02:47:23;12.30;99.90
29237;DHT22;16266;50.866;4.398;2023-08-31T02:49:48;12.30;99.90
29237;DHT22;16266;50.866;4.398;2023-08-31T02:52:14;12.40;99.90
29237;DHT22;16266;50.866;4.398;2023-08-31T02:54:40;12.40;99.90
29237;DHT22;16266;50.866;4.398;2023-08-31T02:57:05;12.40;99.90
29237;DHT22;16266;50.866;4.398;2023-08-31T02:59:31;12.50;99.90
29237;DHT22;16266;50.866;4.398;2023-08-31T03:02:01;12.50;99.90
29237;DHT22;16266;50.866;4.398;2023-08-31T03:04:27;12.40;99.90
29237;DHT22;16266;50.866;4.398;2023-08-31T03:06:53;12.40;99.90
29237;DHT22;16266;50.866;4.398;2023-08-31T03:09:18;12.40;99.90
29237;DHT22;16266;50.866;4.398;2023-08-31T03:11:45;12.50;99.90
29237;DHT22;16266;50.866;4.398;2023-08-31T03:14:11;12.60;99.90
29237;DHT22;16266;50.866;4.398;2023-08-31T03:16:37;12.60;99.90
29237;DHT22;16266;50.866;4.398;2023-08-31T03:19:04;12.70;99.90
29237;DHT22;16266;50.866;4.398;2023-08-31T03:21:30;12.70;99.90
29237;DHT22;16266;50.866;4.398;2023-08-31T03:23:56;12.80;99.90
29237;DHT22;16266;50.866;4.398;2023-08-31T03:26:21;12.70;99.90
29237;DHT22;16266;50.866;4.398;2023-08-31T03:28:47;12.70;99.90
29237;DHT22;16266;50.866;4.398;2023-08-31T03:31:13;12.60;99.90
29237;DHT22;16266;50.866;4.398;2023-08-31T03:33:38;12.50;99.90
29237;DHT22;16266;50.866;4.398;2023-08-31T03:36:04;12.60;99.90
29237;DHT22;16266;50.866;4.398;2023-08-31T03:38:31;12.60;99.90
29237;DHT22;16266;50.866;4.398;2023-08-31T03:40:57;12.50;99.90
29237;DHT22;16266;50.866;4.398;2023-08-31T03:43:23;12.60;99.90
29237;DHT22;16266;50.866;4.398;2023-08-31T03:45:53;12.50;99.90
29237;DHT22;16266;50.866;4.398;2023-08-31T03:48:21;12.60;99.90
29237;DHT22;16266;50.866;4.398;2023-08-31T03:50:52;12.70;99.90
29237;DHT22;16266;50.866;4.398;2023-08-31T03:53:18;12.70;99.90
29237;DHT22;16266;50.866;4.398;2023-08-31T03:55:44;12.70;99.90
29237;DHT22;16266;50.866;4.398;2023-08-31T03:58:09;12.70;99.90
29237;DHT22;16266;50.866;4.398;2023-08-31T04:00:36;12.70;99.90
29237;DHT22;16266;50.866;4.398;2023-08-31T04:03:02;12.70;99.90
29237;DHT22;16266;50.866;4.398;2023-08-31T04:05:32;12.60;99.90
29237;DHT22;16266;50.866;4.398;2023-08-31T04:07:58;12.60;99.90
29237;DHT22;16266;50.866;4.398;2023-08-31T04:10:23;12.60;99.90
29237;DHT22;16266;50.866;4.398;2023-08-31T04:12:51;12.50;99.90
29237;DHT22;16266;50.866;4.398;2023-08-31T04:15:16;12.50;99.90
29237;DHT22;16266;50.866;4.398;2023-08-31T04:17:43;12.50;99.90
29237;DHT22;16266;50.866;4.398;2023-08-31T04:20:09;12.50;99.90
29237;DHT22;16266;50.866;4.398;2023-08-31T04:22:34;12.40;99.90
29237;DHT22;16266;50.866;4.398;2023-08-31T04:25:00;12.30;99.90
29237;DHT22;16266;50.866;4.398;2023-08-31T04:27:26;12.20;99.90
29237;DHT22;16266;50.866;4.398;2023-08-31T04:29:53;12.20;99.90
29237;DHT22;16266;50.866;4.398;2023-08-31T04:32:18;12.20;99.90
29237;DHT22;16266;50.866;4.398;2023-08-31T04:34:44;12.30;99.90
29237;DHT22;16266;50.866;4.398;2023-08-31T04:37:10;12.20;99.90
29237;DHT22;16266;50.866;4.398;2023-08-31T04:39:35;12.20;99.90
29237;DHT22;16266;50.866;4.398;2023-08-31T04:42:01;12.20;99.90
29237;DHT22;16266;50.866;4.398;2023-08-31T04:44:27;12.20;99.90
29237;DHT22;16266;50.866;4.398;2023-08-31T04:46:53;12.20;99.90
29237;DHT22;16266;50.866;4.398;2023-08-31T04:49:20;12.10;99.90
29237;DHT22;16266;50.866;4.398;2023-08-31T04:51:46;12.10;99.90
29237;DHT22;16266;50.866;4.398;2023-08-31T04:54:11;12.10;99.90
29237;DHT22;16266;50.866;4.398;2023-08-31T04:56:37;12.20;99.90
29237;DHT22;16266;50.866;4.398;2023-08-31T04:59:03;12.20;99.90
29237;DHT22;16266;50.866;4.398;2023-08-31T05:01:28;12.20;99.90
29237;DHT22;16266;50.866;4.398;2023-08-31T05:03:54;12.30;99.90
29237;DHT22;16266;50.866;4.398;2023-08-31T05:06:20;12.30;99.90
29237;DHT22;16266;50.866;4.398;2023-08-31T05:08:49;12.30;99.90
29237;DHT22;16266;50.866;4.398;2023-08-31T05:11:14;12.40;99.90
29237;DHT22;16266;50.866;4.398;2023-08-31T05:13:40;12.30;99.90
29237;DHT22;16266;50.866;4.398;2023-08-31T05:16:09;12.40;99.90
29237;DHT22;16266;50.866;4.398;2023-08-31T05:18:35;12.40;99.90
29237;DHT22;16266;50.866;4.398;2023-08-31T05:21:02;12.50;99.90
29237;DHT22;16266;50.866;4.398;2023-08-31T05:23:29;12.50;99.90
29237;DHT22;16266;50.866;4.398;2023-08-31T05:25:55;12.60;99.90
29237;DHT22;16266;50.866;4.398;2023-08-31T05:28:24;12.70;99.90
29237;DHT22;16266;50.866;4.398;2023-08-31T05:30:51;12.80;99.90
29237;DHT22;16266;50.866;4.398;2023-08-31T05:33:20;12.90;99.90
29237;DHT22;16266;50.866;4.398;2023-08-31T05:35:47;13.30;99.90
29237;DHT22;16266;50.866;4.398;2023-08-31T05:38:14;13.70;99.90
29237;DHT22;16266;50.866;4.398;2023-08-31T05:40:39;14.00;99.90
29237;DHT22;16266;50.866;4.398;2023-08-31T05:43:07;14.30;99.90
29237;DHT22;16266;50.866;4.398;2023-08-31T05:45:33;14.50;99.90
29237;DHT22;16266;50.866;4.398;2023-08-31T05:48:00;14.60;99.90
29237;DHT22;16266;50.866;4.398;2023-08-31T05:50:26;14.80;99.90
29237;DHT22;16266;50.866;4.398;2023-08-31T05:52:52;15.00;99.90
29237;DHT22;16266;50.866;4.398;2023-08-31T05:55:18;15.00;99.90
29237;DHT22;16266;50.866;4.398;2023-08-31T05:57:44;15.20;99.90
29237;DHT22;16266;50.866;4.398;2023-08-31T06:00:10;15.50;99.90
29237;DHT22;16266;50.866;4.398;2023-08-31T06:02:35;15.70;99.90
29237;DHT22;16266;50.866;4.398;2023-08-31T06:05:02;15.90;99.90
29237;DHT22;16266;50.866;4.398;2023-08-31T06:07:29;16.30;99.90
29237;DHT22;16266;50.866;4.398;2023-08-31T06:09:55;16.70;99.90
29237;DHT22;16266;50.866;4.398;2023-08-31T06:12:21;17.10;99.90
29237;DHT22;16266;50.866;4.398;2023-08-31T06:14:48;17.30;99.90
29237;DHT22;16266;50.866;4.398;2023-08-31T06:17:13;17.70;99.90
29237;DHT22;16266;50.866;4.398;2023-08-31T06:19:41;18.10;99.90
29237;DHT22;16266;50.866;4.398;2023-08-31T06:22:07;18.60;99.90
29237;DHT22;16266;50.866;4.398;2023-08-31T06:24:32;18.90;99.90
29237;DHT22;16266;50.866;4.398;2023-08-31T06:26:59;19.40;99.90
29237;DHT22;16266;50.866;4.398;2023-08-31T06:29:25;19.90;99.90
29237;DHT22;16266;50.866;4.398;2023-08-31T06:31:51;20.20;99.90
29237;DHT22;16266;50.866;4.398;2023-08-31T06:34:16;20.40;99.90
29237;DHT22;16266;50.866;4.398;2023-08-31T06:36:42;20.70;99.90
29237;DHT22;16266;50.866;4.398;2023-08-31T06:39:08;21.00;99.90
29237;DHT22;16266;50.866;4.398;2023-08-31T06:41:34;21.10;99.90
29237;DHT22;16266;50.866;4.398;2023-08-31T06:43:59;21.60;99.90
29237;DHT22;16266;50.866;4.398;2023-08-31T06:46:25;21.70;99.90
29237;DHT22;16266;50.866;4.398;2023-08-31T06:48:51;22.00;99.90
29237;DHT22;16266;50.866;4.398;2023-08-31T06:51:17;22.20;99.90
29237;DHT22;16266;50.866;4.398;2023-08-31T06:53:44;22.90;99.90
29237;DHT22;16266;50.866;4.398;2023-08-31T06:56:09;23.70;99.90
29237;DHT22;16266;50.866;4.398;2023-08-31T06:58:35;24.40;99.90
29237;DHT22;16266;50.866;4.398;2023-08-31T07:01:05;24.40;99.90
29237;DHT22;16266;50.866;4.398;2023-08-31T07:03:30;24.60;99.90
29237;DHT22;16266;50.866;4.398;2023-08-31T07:05:59;25.10;99.90
29237;DHT22;16266;50.866;4.398;2023-08-31T07:08:25;25.90;99.90
29237;DHT22;16266;50.866;4.398;2023-08-31T07:10:52;26.60;99.00
29237;DHT22;16266;50.866;4.398;2023-08-31T07:13:19;26.40;99.40
29237;DHT22;16266;50.866;4.398;2023-08-31T07:15:45;26.30;97.10
29237;DHT22;16266;50.866;4.398;2023-08-31T07:18:14;26.20;96.50
29237;DHT22;16266;50.866;4.398;2023-08-31T07:20:40;26.30;96.00
29237;DHT22;16266;50.866;4.398;2023-08-31T07:26:27;26.70;95.60
29237;DHT22;16266;50.866;4.398;2023-08-31T07:28:54;27.00;94.00
29237;DHT22;16266;50.866;4.398;2023-08-31T07:31:23;26.80;92.40
29237;DHT22;16266;50.866;4.398;2023-08-31T07:33:48;26.80;91.80
29237;DHT22;16266;50.866;4.398;2023-08-31T07:36:14;27.20;91.30
29237;DHT22;16266;50.866;4.398;2023-08-31T07:38:40;27.90;88.70
29237;DHT22;16266;50.866;4.398;2023-08-31T07:41:06;28.00;90.80
29237;DHT22;16266;50.866;4.398;2023-08-31T07:43:32;28.70;81.90
29237;DHT22;16266;50.866;4.398;2023-08-31T07:45:58;29.10;76.00
29237;DHT22;16266;50.866;4.398;2023-08-31T07:48:24;29.10;77.10
29237;DHT22;16266;50.866;4.398;2023-08-31T07:50:49;29.00;73.30
29237;DHT22;16266;50.866;4.398;2023-08-31T07:53:15;28.40;78.10
29237;DHT22;16266;50.866;4.398;2023-08-31T07:55:54;28.70;75.60
29237;DHT22;16266;50.866;4.398;2023-08-31T07:58:21;29.40;67.30
29237;DHT22;16266;50.866;4.398;2023-08-31T08:00:46;29.90;64.50
29237;DHT22;16266;50.866;4.398;2023-08-31T08:03:12;30.70;61.00
29237;DHT22;16266;50.866;4.398;2023-08-31T08:05:39;30.90;57.70
29237;DHT22;16266;50.866;4.398;2023-08-31T08:08:06;30.20;60.50
29237;DHT22;16266;50.866;4.398;2023-08-31T08:10:31;30.40;60.30
29237;DHT22;16266;50.866;4.398;2023-08-31T08:12:57;31.10;56.70
29237;DHT22;16266;50.866;4.398;2023-08-31T08:15:24;31.40;50.80
29237;DHT22;16266;50.866;4.398;2023-08-31T08:17:50;31.50;48.90
29237;DHT22;16266;50.866;4.398;2023-08-31T08:20:16;31.30;50.10
29237;DHT22;16266;50.866;4.398;2023-08-31T08:22:41;30.90;50.20
29237;DHT22;16266;50.866;4.398;2023-08-31T08:25:07;30.00;52.00
29237;DHT22;16266;50.866;4.398;2023-08-31T08:27:33;30.10;53.40
29237;DHT22;16266;50.866;4.398;2023-08-31T08:29:59;30.00;52.90
29237;DHT22;16266;50.866;4.398;2023-08-31T08:32:25;30.30;53.20
29237;DHT22;16266;50.866;4.398;2023-08-31T08:34:51;30.30;51.30
29237;DHT22;16266;50.866;4.398;2023-08-31T08:37:17;29.70;53.60
29237;DHT22;16266;50.866;4.398;2023-08-31T08:39:43;29.70;51.40
29237;DHT22;16266;50.866;4.398;2023-08-31T08:42:10;30.20;55.20
29237;DHT22;16266;50.866;4.398;2023-08-31T08:44:37;31.30;50.40
29237;DHT22;16266;50.866;4.398;2023-08-31T08:47:03;32.30;45.20
29237;DHT22;16266;50.866;4.398;2023-08-31T08:49:31;32.80;43.30
29237;DHT22;16266;50.866;4.398;2023-08-31T08:51:58;33.60;38.60
29237;DHT22;16266;50.866;4.398;2023-08-31T08:54:25;32.80;39.10
29237;DHT22;16266;50.866;4.398;2023-08-31T08:56:51;33.00;39.90
29237;DHT22;16266;50.866;4.398;2023-08-31T08:59:16;32.70;37.50
29237;DHT22;16266;50.866;4.398;2023-08-31T09:01:42;32.20;38.40
29237;DHT22;16266;50.866;4.398;2023-08-31T09:04:09;31.50;40.50
29237;DHT22;16266;50.866;4.398;2023-08-31T09:06:35;31.40;40.40
29237;DHT22;16266;50.866;4.398;2023-08-31T09:09:01;31.50;41.20
29237;DHT22;16266;50.866;4.398;2023-08-31T09:11:27;31.70;41.30
29237;DHT22;16266;50.866;4.398;2023-08-31T09:13:53;31.20;42.30
29237;DHT22;16266;50.866;4.398;2023-08-31T09:16:29;30.80;41.50
29237;DHT22;16266;50.866;4.398;2023-08-31T09:18:56;30.20;41.90
29237;DHT22;16266;50.866;4.398;2023-08-31T09:21:23;30.70;44.90
29237;DHT22;16266;50.866;4.398;2023-08-31T09:23:59;31.40;40.00
29237;DHT22;16266;50.866;4.398;2023-08-31T09:26:25;32.00;39.40
29237;DHT22;16266;50.866;4.398;2023-08-31T09:28:52;32.40;37.20
29237;DHT22;16266;50.866;4.398;2023-08-31T09:31:18;32.70;37.30
29237;DHT22;16266;50.866;4.398;2023-08-31T09:33:50;33.70;34.40
29237;DHT22;16266;50.866;4.398;2023-08-31T09:36:17;34.30;31.50
29237;DHT22;16266;50.866;4.398;2023-08-31T09:38:44;33.50;30.00
29237;DHT22;16266;50.866;4.398;2023-08-31T09:41:10;32.80;30.00
29237;DHT22;16266;50.866;4.398;2023-08-31T09:43:36;32.50;30.30
29237;DHT22;16266;50.866;4.398;2023-08-31T09:46:04;32.50;31.00
29237;DHT22;16266;50.866;4.398;2023-08-31T09:48:30;32.90;30.00
29237;DHT22;16266;50.866;4.398;2023-08-31T09:50:56;32.80;31.00
29237;DHT22;16266;50.866;4.398;2023-08-31T09:53:27;33.10;29.30
29237;DHT22;16266;50.866;4.398;2023-08-31T09:55:54;33.50;29.00
29237;DHT22;16266;50.866;4.398;2023-08-31T09:58:22;34.00;29.70
29237;DHT22;16266;50.866;4.398;2023-08-31T10:00:52;34.50;27.30
29237;DHT22;16266;50.866;4.398;2023-08-31T10:03:19;34.80;26.80
29237;DHT22;16266;50.866;4.398;2023-08-31T10:05:46;34.90;26.00
29237;DHT22;16266;50.866;4.398;2023-08-31T10:08:12;35.70;25.50
29237;DHT22;16266;50.866;4.398;2023-08-31T10:10:40;35.90;24.10
29237;DHT22;16266;50.866;4.398;2023-08-31T10:13:06;34.90;23.20
29237;DHT22;16266;50.866;4.398;2023-08-31T10:15:32;32.60;28.40
29237;DHT22;16266;50.866;4.398;2023-08-31T10:18:01;31.40;31.10
29237;DHT22;16266;50.866;4.398;2023-08-31T10:20:28;30.70;34.50
29237;DHT22;16266;50.866;4.398;2023-08-31T10:23:03;30.30;35.60
29237;DHT22;16266;50.866;4.398;2023-08-31T10:28:22;30.70;37.50
29237;DHT22;16266;50.866;4.398;2023-08-31T10:31:01;31.30;33.90
29237;DHT22;16266;50.866;4.398;2023-08-31T10:33:43;30.60;33.50
29237;DHT22;16266;50.866;4.398;2023-08-31T10:36:13;30.20;34.50
29237;DHT22;16266;50.866;4.398;2023-08-31T10:38:42;29.20;35.40
29237;DHT22;16266;50.866;4.398;2023-08-31T10:46:36;27.00;46.50
29237;DHT22;16266;50.866;4.398;2023-08-31T10:51:41;26.50;51.50
29237;DHT22;16266;50.866;4.398;2023-08-31T10:57:06;28.40;46.80
29237;DHT22;16266;50.866;4.398;2023-08-31T10:59:51;29.00;43.80
29237;DHT22;16266;50.866;4.398;2023-08-31T11:02:38;29.50;39.40
29237;DHT22;16266;50.866;4.398;2023-08-31T11:05:14;29.70;36.20
29237;DHT22;16266;50.866;4.398;2023-08-31T11:07:47;29.80;36.20
29237;DHT22;16266;50.866;4.398;2023-08-31T11:10:23;29.60;36.20
29237;DHT22;16266;50.866;4.398;2023-08-31T11:12:54;29.20;38.80
29237;DHT22;16266;50.866;4.398;2023-08-31T11:15:22;28.50;40.20
29237;DHT22;16266;50.866;4.398;2023-08-31T11:17:51;28.00;40.30
29237;DHT22;16266;50.866;4.398;2023-08-31T11:20:18;27.40;44.50
29237;DHT22;16266;50.866;4.398;2023-08-31T11:22:49;26.70;45.60
29237;DHT22;16266;50.866;4.398;2023-08-31T11:25:16;26.40;47.50
29237;DHT22;16266;50.866;4.398;2023-08-31T11:27:55;26.90;48.30
29237;DHT22;16266;50.866;4.398;2023-08-31T11:30:21;27.10;47.20
29237;DHT22;16266;50.866;4.398;2023-08-31T11:32:48;26.90;46.20
29237;DHT22;16266;50.866;4.398;2023-08-31T11:35:15;26.70;48.90
29237;DHT22;16266;50.866;4.398;2023-08-31T11:37:43;26.70;50.20
29237;DHT22;16266;50.866;4.398;2023-08-31T11:40:09;26.90;49.70
29237;DHT22;16266;50.866;4.398;2023-08-31T11:42:35;27.60;45.70
29237;DHT22;16266;50.866;4.398;2023-08-31T11:45:01;28.60;43.10
29237;DHT22;16266;50.866;4.398;2023-08-31T11:47:33;29.00;40.30
29237;DHT22;16266;50.866;4.398;2023-08-31T11:50:00;28.70;39.00
29237;DHT22;16266;50.866;4.398;2023-08-31T11:52:29;28.70;39.00
29237;DHT22;16266;50.866;4.398;2023-08-31T11:54:55;28.60;40.50
29237;DHT22;16266;50.866;4.398;2023-08-31T11:57:26;28.00;39.40
29237;DHT22;16266;50.866;4.398;2023-08-31T11:59:54;27.10;39.80
29237;DHT22;16266;50.866;4.398;2023-08-31T12:02:21;26.50;42.90
29237;DHT22;16266;50.866;4.398;2023-08-31T12:04:47;26.10;42.80
29237;DHT22;16266;50.866;4.398;2023-08-31T12:07:17;25.50;44.50
29237;DHT22;16266;50.866;4.398;2023-08-31T12:09:44;24.80;50.20
29237;DHT22;16266;50.866;4.398;2023-08-31T12:12:21;24.40;52.70
29237;DHT22;16266;50.866;4.398;2023-08-31T12:14:47;24.00;56.50
29237;DHT22;16266;50.866;4.398;2023-08-31T12:17:13;23.80;57.60
29237;DHT22;16266;50.866;4.398;2023-08-31T12:19:39;23.80;60.00
29237;DHT22;16266;50.866;4.398;2023-08-31T12:22:05;23.80;61.80
29237;DHT22;16266;50.866;4.398;2023-08-31T12:24:40;23.70;64.10
29237;DHT22;16266;50.866;4.398;2023-08-31T12:27:07;23.80;63.70
29237;DHT22;16266;50.866;4.398;2023-08-31T12:29:33;23.70;66.70
29237;DHT22;16266;50.866;4.398;2023-08-31T12:31:58;23.30;73.70
29237;DHT22;16266;50.866;4.398;2023-08-31T12:34:24;23.30;78.10
29237;DHT22;16266;50.866;4.398;2023-08-31T12:36:50;23.40;77.60
29237;DHT22;16266;50.866;4.398;2023-08-31T12:39:17;23.60;79.20
29237;DHT22;16266;50.866;4.398;2023-08-31T12:41:43;23.80;81.60
29237;DHT22;16266;50.866;4.398;2023-08-31T12:44:09;23.80;77.20
29237;DHT22;16266;50.866;4.398;2023-08-31T12:46:34;23.70;74.60
29237;DHT22;16266;50.866;4.398;2023-08-31T12:49:01;23.40;77.30
29237;DHT22;16266;50.866;4.398;2023-08-31T12:51:31;23.20;75.60
29237;DHT22;16266;50.866;4.398;2023-08-31T12:53:57;23.40;76.30
29237;DHT22;16266;50.866;4.398;2023-08-31T12:56:23;23.60;75.80
29237;DHT22;16266;50.866;4.398;2023-08-31T12:58:52;23.80;73.70
29237;DHT22;16266;50.866;4.398;2023-08-31T13:01:19;24.00;72.40
29237;DHT22;16266;50.866;4.398;2023-08-31T13:03:46;24.40;69.20
29237;DHT22;16266;50.866;4.398;2023-08-31T13:06:15;24.50;63.70
29237;DHT22;16266;50.866;4.398;2023-08-31T13:08:42;24.80;64.10
29237;DHT22;16266;50.866;4.398;2023-08-31T13:11:09;24.80;63.00
29237;DHT22;16266;50.866;4.398;2023-08-31T13:13:35;24.40;57.00
29237;DHT22;16266;50.866;4.398;2023-08-31T13:16:01;24.10;55.90
29237;DHT22;16266;50.866;4.398;2023-08-31T13:18:27;24.00;56.50
29237;DHT22;16266;50.866;4.398;2023-08-31T13:20:54;23.90;56.60
29237;DHT22;16266;50.866;4.398;2023-08-31T13:23:23;23.90;55.50
29237;DHT22;16266;50.866;4.398;2023-08-31T13:25:50;24.00;55.10
29237;DHT22;16266;50.866;4.398;2023-08-31T13:28:17;24.20;54.60
29237;DHT22;16266;50.866;4.398;2023-08-31T13:30:43;24.30;53.80
29237;DHT22;16266;50.866;4.398;2023-08-31T13:33:08;24.40;53.40
29237;DHT22;16266;50.866;4.398;2023-08-31T13:35:35;24.50;53.80
29237;DHT22;16266;50.866;4.398;2023-08-31T13:38:02;24.80;55.10
29237;DHT22;16266;50.866;4.398;2023-08-31T13:40:28;25.00;53.10
29237;DHT22;16266;50.866;4.398;2023-08-31T13:42:58;25.00;54.10
29237;DHT22;16266;50.866;4.398;2023-08-31T13:45:28;25.20;53.40
29237;DHT22;16266;50.866;4.398;2023-08-31T13:47:53;25.70;52.40
29237;DHT22;16266;50.866;4.398;2023-08-31T13:50:19;25.30;50.70
29237;DHT22;16266;50.866;4.398;2023-08-31T13:52:45;24.60;52.40
29237;DHT22;16266;50.866;4.398;2023-08-31T13:55:11;24.10;55.20
29237;DHT22;16266;50.866;4.398;2023-08-31T13:57:41;23.80;56.40
29237;DHT22;16266;50.866;4.398;2023-08-31T14:00:07;23.50;58.90
29237;DHT22;16266;50.866;4.398;2023-08-31T14:02:35;23.50;60.80
29237;DHT22;16266;50.866;4.398;2023-08-31T14:05:02;23.60;58.40
29237;DHT22;16266;50.866;4.398;2023-08-31T14:07:27;23.70;59.80
29237;DHT22;16266;50.866;4.398;2023-08-31T14:09:53;23.70;64.20
29237;DHT22;16266;50.866;4.398;2023-08-31T14:12:19;23.60;62.30
29237;DHT22;16266;50.866;4.398;2023-08-31T14:14:45;24.00;60.40
29237;DHT22;16266;50.866;4.398;2023-08-31T14:17:11;24.10;58.70
29237;DHT22;16266;50.866;4.398;2023-08-31T14:19:38;24.10;58.40
29237;DHT22;16266;50.866;4.398;2023-08-31T14:22:04;24.00;57.40
29237;DHT22;16266;50.866;4.398;2023-08-31T14:24:30;23.80;59.60
29237;DHT22;16266;50.866;4.398;2023-08-31T14:26:56;23.80;63.60
29237;DHT22;16266;50.866;4.398;2023-08-31T14:29:23;23.80;61.60
29237;DHT22;16266;50.866;4.398;2023-08-31T14:31:49;23.60;62.50
29237;DHT22;16266;50.866;4.398;2023-08-31T14:34:15;23.50;63.30
29237;DHT22;16266;50.866;4.398;2023-08-31T14:36:40;23.30;66.00
29237;DHT22;16266;50.866;4.398;2023-08-31T14:39:06;23.30;68.40
29237;DHT22;16266;50.866;4.398;2023-08-31T14:41:32;23.30;70.40
29237;DHT22;16266;50.866;4.398;2023-08-31T14:43:57;23.60;68.80
29237;DHT22;16266;50.866;4.398;2023-08-31T14:46:23;23.60;69.10
29237;DHT22;16266;50.866;4.398;2023-08-31T14:48:50;23.70;69.50
29237;DHT22;16266;50.866;4.398;2023-08-31T14:51:16;23.60;70.80
29237;DHT22;16266;50.866;4.398;2023-08-31T14:53:42;23.40;71.50
29237;DHT22;16266;50.866;4.398;2023-08-31T14:56:08;23.40;69.50
29237;DHT22;16266;50.866;4.398;2023-08-31T14:58:34;23.00;71.80
29237;DHT22;16266;50.866;4.398;2023-08-31T15:01:00;22.80;73.30
29237;DHT22;16266;50.866;4.398;2023-08-31T15:03:26;22.90;74.10
29237;DHT22;16266;50.866;4.398;2023-08-31T15:05:52;23.00;74.10
29237;DHT22;16266;50.866;4.398;2023-08-31T15:08:21;23.20;74.20
29237;DHT22;16266;50.866;4.398;2023-08-31T15:10:47;23.00;73.90
29237;DHT22;16266;50.866;4.398;2023-08-31T15:13:12;23.00;74.40
29237;DHT22;16266;50.866;4.398;2023-08-31T15:15:38;23.00;73.80
29237;DHT22;16266;50.866;4.398;2023-08-31T15:18:04;22.90;74.40
29237;DHT22;16266;50.866;4.398;2023-08-31T15:20:30;22.60;74.10
29237;DHT22;16266;50.866;4.398;2023-08-31T15:22:56;22.60;76.70
29237;DHT22;16266;50.866;4.398;2023-08-31T15:25:21;22.50;76.30
29237;DHT22;16266;50.866;4.398;2023-08-31T15:27:47;22.40;78.90
29237;DHT22;16266;50.866;4.398;2023-08-31T15:30:13;22.60;79.00
29237;DHT22;16266;50.866;4.398;2023-08-31T15:32:40;22.70;80.00
29237;DHT22;16266;50.866;4.398;2023-08-31T15:35:06;22.50;79.60
29237;DHT22;16266;50.866;4.398;2023-08-31T15:37:32;22.30;83.40
29237;DHT22;16266;50.866;4.398;2023-08-31T15:39:58;22.20;85.40
29237;DHT22;16266;50.866;4.398;2023-08-31T15:42:27;22.10;86.10
29237;DHT22;16266;50.866;4.398;2023-08-31T15:44:54;21.90;90.10
29237;DHT22;16266;50.866;4.398;2023-08-31T15:47:21;21.70;91.80
29237;DHT22;16266;50.866;4.398;2023-08-31T15:49:47;21.80;92.40
29237;DHT22;16266;50.866;4.398;2023-08-31T15:52:12;21.70;92.80